Time;durP1;ratioP1;P1;durP2;ratioP2;P2;SDS_P1;SDS_P2;PMS_P1;PMS_P2;Temp;Humidity;BMP_temperature;BMP_pressure;BME280_temperature;BME280_humidity;BME280_pressure;Samples;Min_cycle;Max_cycle;Signal;HPM_P1;HPM_P2
2023/12/23 00:01:22;;;;;;;0.00;0.00;;;8.30;99.90;;;;;;5042329;28;20188;-65
2023/12/23 00:03:47;;;;;;;0.00;0.00;;;8.20;99.90;;;;;;5051667;28;20185;-65
2023/12/23 00:06:13;;;;;;;0.00;0.00;;;8.20;99.90;;;;;;5052461;28;20185;-65
2023/12/23 00:08:38;;;;;;;0.00;0.00;;;8.20;99.90;;;;;;5052299;28;20181;-64
2023/12/23 00:11:04;;;;;;;0.00;0.00;;;8.10;99.90;;;;;;5051500;28;20544;-65
2023/12/23 00:13:29;;;;;;;0.00;0.00;;;8.20;99.90;;;;;;5050978;28;20182;-65
2023/12/23 00:15:55;;;;;;;0.00;0.00;;;8.20;99.90;;;;;;5050543;28;20189;-64
2023/12/23 00:18:20;;;;;;;0.00;0.00;;;8.10;99.90;;;;;;5051174;28;20181;-64
2023/12/23 00:20:46;;;;;;;0.00;0.00;;;8.10;99.90;;;;;;5051135;28;20214;-64
2023/12/23 00:23:12;;;;;;;0.00;0.00;;;8.10;99.90;;;;;;5051121;28;20270;-65
2023/12/23 00:25:38;;;;;;;0.00;0.00;;;8.20;99.90;;;;;;5055428;28;20185;-65
2023/12/23 00:28:04;;;;;;;0.00;0.00;;;8.20;99.90;;;;;;5052818;28;20177;-64
2023/12/23 00:30:30;;;;;;;0.00;0.00;;;8.10;99.90;;;;;;5049156;28;20235;-65
2023/12/23 00:32:55;;;;;;;0.08;0.00;;;8.10;99.90;;;;;;5049761;28;20284;-65
2023/12/23 00:35:21;;;;;;;0.00;0.00;;;8.10;99.90;;;;;;5049881;28;20256;-65
2023/12/23 00:37:46;;;;;;;0.00;0.00;;;8.10;99.90;;;;;;5050388;28;20181;-65
2023/12/23 00:40:12;;;;;;;0.00;0.00;;;8.10;99.90;;;;;;5049859;28;20308;-65
2023/12/23 00:42:38;;;;;;;0.00;0.00;;;8.10;99.90;;;;;;5049731;28;20220;-65
2023/12/23 00:45:04;;;;;;;0.00;0.00;;;8.10;99.90;;;;;;5049714;28;20185;-65
2023/12/23 00:47:30;;;;;;;0.10;0.10;;;8.10;99.90;;;;;;5050217;28;20219;-65
2023/12/23 00:49:55;;;;;;;0.00;0.00;;;8.10;99.90;;;;;;5048937;28;20875;-65
2023/12/23 00:52:21;;;;;;;0.00;0.00;;;8.00;99.90;;;;;;5050326;28;20260;-65
2023/12/23 00:54:46;;;;;;;0.00;0.00;;;8.00;99.90;;;;;;5049984;28;20200;-65
2023/12/23 00:57:12;;;;;;;0.00;0.00;;;8.00;99.90;;;;;;5049856;28;20190;-66
2023/12/23 00:59:38;;;;;;;0.00;0.00;;;8.00;99.90;;;;;;5053346;28;20595;-65
2023/12/23 01:02:03;;;;;;;0.00;0.00;;;8.00;99.90;;;;;;5053717;28;20232;-68
2023/12/23 01:04:29;;;;;;;0.00;0.00;;;8.00;99.90;;;;;;5054254;28;20173;-66
2023/12/23 01:06:55;;;;;;;0.00;0.00;;;8.00;99.90;;;;;;5052434;28;20708;-66
2023/12/23 01:09:20;;;;;;;0.00;0.00;;;8.00;99.90;;;;;;5054153;28;20185;-65
2023/12/23 01:11:46;;;;;;;0.10;0.10;;;8.00;99.90;;;;;;5054039;28;20201;-65
2023/12/23 01:14:11;;;;;;;0.00;0.00;;;8.00;99.90;;;;;;5053989;28;20187;-66
2023/12/23 01:16:37;;;;;;;0.00;0.00;;;8.00;99.90;;;;;;5053959;28;20598;-66
2023/12/23 01:19:03;;;;;;;0.00;0.00;;;8.00;99.90;;;;;;5053550;28;20280;-66
2023/12/23 01:21:29;;;;;;;0.00;0.00;;;8.00;99.90;;;;;;5053915;28;20186;-66
2023/12/23 01:23:54;;;;;;;0.00;0.00;;;8.00;99.90;;;;;;5053584;28;20185;-66
2023/12/23 01:26:20;;;;;;;0.00;0.00;;;8.10;99.90;;;;;;5054064;28;20182;-66
2023/12/23 01:28:45;;;;;;;0.00;0.00;;;8.10;99.90;;;;;;5053741;28;20555;-66
2023/12/23 01:31:11;;;;;;;0.00;0.00;;;8.10;99.90;;;;;;5052400;28;20186;-67
2023/12/23 01:33:36;;;;;;;0.00;0.00;;;8.10;99.90;;;;;;5053461;28;20200;-66
2023/12/23 01:36:05;;;;;;;0.00;0.00;;;8.00;99.90;;;;;;5053214;28;20703;-66
2023/12/23 01:38:33;;;;;;;0.00;0.00;;;8.00;99.90;;;;;;5052789;28;20380;-66
2023/12/23 01:40:59;;;;;;;0.00;0.00;;;8.00;99.90;;;;;;5053091;28;20664;-66
2023/12/23 01:43:25;;;;;;;0.00;0.00;;;8.00;99.90;;;;;;5053421;28;20213;-66
2023/12/23 01:45:56;;;;;;;0.00;0.00;;;8.00;99.90;;;;;;5053312;28;20188;-65
2023/12/23 01:48:22;;;;;;;0.00;0.00;;;8.00;99.90;;;;;;5053463;28;20542;-66
2023/12/23 01:50:49;;;;;;;0.00;0.00;;;8.00;99.90;;;;;;5053225;28;20181;-66
2023/12/23 01:53:15;;;;;;;0.00;0.00;;;8.00;99.90;;;;;;5037535;28;20264;-67
2023/12/23 01:55:41;;;;;;;0.00;0.00;;;8.00;99.90;;;;;;5048142;28;20288;-67
2023/12/23 01:58:07;;;;;;;0.00;0.00;;;8.00;99.90;;;;;;5053130;28;20549;-66
2023/12/23 02:00:32;;;;;;;0.00;0.00;;;8.00;99.90;;;;;;5053038;28;20399;-67
2023/12/23 02:02:59;;;;;;;0.00;0.00;;;8.00;99.90;;;;;;5051569;28;20217;-67
2023/12/23 02:05:25;;;;;;;0.00;0.00;;;8.00;99.90;;;;;;5053332;28;20608;-67
2023/12/23 02:07:51;;;;;;;0.00;0.00;;;8.10;99.90;;;;;;5053037;28;20181;-68
2023/12/23 02:10:17;;;;;;;0.00;0.00;;;8.10;99.90;;;;;;5053056;28;20704;-67
2023/12/23 02:12:57;;;;;;;0.00;0.00;;;8.10;99.90;;;;;;5052918;28;20367;-66
2023/12/23 02:15:23;;;;;;;0.00;0.00;;;8.10;99.90;;;;;;5038170;28;20177;-67
2023/12/23 02:17:59;;;;;;;0.00;0.00;;;8.10;99.90;;;;;;5052816;28;20178;-67
2023/12/23 02:20:24;;;;;;;0.00;0.00;;;8.10;99.90;;;;;;5052813;28;20177;-67
2023/12/23 02:22:50;;;;;;;0.00;0.00;;;8.10;99.90;;;;;;5052671;28;20216;-66
2023/12/23 02:25:16;;;;;;;0.00;0.00;;;8.10;99.90;;;;;;5052402;28;20216;-68
2023/12/23 02:27:51;;;;;;;0.00;0.00;;;8.10;99.90;;;;;;5052731;28;20779;-68
2023/12/23 02:30:19;;;;;;;0.00;0.00;;;8.00;99.90;;;;;;5052581;28;20195;-68
2023/12/23 02:32:44;;;;;;;0.00;0.00;;;8.10;99.90;;;;;;5052656;28;20648;-68
2023/12/23 02:35:12;;;;;;;0.00;0.00;;;8.10;99.90;;;;;;5052274;28;20317;-68
2023/12/23 02:37:38;;;;;;;0.00;0.00;;;8.10;99.90;;;;;;5052432;28;20189;-68
2023/12/23 02:40:04;;;;;;;0.00;0.00;;;8.10;99.90;;;;;;5051059;28;20233;-67
2023/12/23 02:42:30;;;;;;;0.00;0.00;;;8.10;99.90;;;;;;5051772;28;20259;-66
2023/12/23 02:44:55;;;;;;;0.05;0.05;;;8.10;99.90;;;;;;5051763;28;20181;-66
2023/12/23 02:47:21;;;;;;;0.00;0.00;;;8.10;99.90;;;;;;5052153;28;20177;-66
2023/12/23 02:49:46;;;;;;;0.00;0.00;;;8.10;99.90;;;;;;5051414;28;20476;-67
2023/12/23 02:52:12;;;;;;;0.00;0.00;;;8.20;99.90;;;;;;5051996;28;20174;-67
2023/12/23 02:54:37;;;;;;;0.00;0.00;;;8.20;99.90;;;;;;5052108;28;20641;-67
2023/12/23 02:57:03;;;;;;;0.00;0.00;;;8.20;99.90;;;;;;5051732;28;20272;-67
2023/12/23 02:59:28;;;;;;;0.00;0.00;;;8.20;99.90;;;;;;5052072;28;20178;-67
2023/12/23 03:01:54;;;;;;;0.00;0.00;;;8.20;99.90;;;;;;5051897;28;20690;-69
2023/12/23 03:04:20;;;;;;;0.00;0.00;;;8.20;99.90;;;;;;5052037;28;20240;-69
2023/12/23 03:06:45;;;;;;;0.00;0.00;;;8.20;99.90;;;;;;5052011;28;20189;-69
2023/12/23 03:09:11;;;;;;;0.00;0.00;;;8.20;99.90;;;;;;5051434;28;20292;-68
2023/12/23 03:11:37;;;;;;;0.00;0.00;;;8.30;99.90;;;;;;5051754;28;20260;-67
2023/12/23 03:14:03;;;;;;;0.00;0.00;;;8.30;99.90;;;;;;5051741;28;20637;-68
2023/12/23 03:16:33;;;;;;;0.00;0.00;;;8.30;99.90;;;;;;5051543;28;20189;-68
2023/12/23 03:19:00;;;;;;;0.00;0.00;;;8.30;99.90;;;;;;5051498;28;20280;-68
2023/12/23 03:21:25;;;;;;;0.00;0.00;;;8.30;99.90;;;;;;5051122;28;20186;-68
2023/12/23 03:23:52;;;;;;;0.00;0.00;;;8.30;99.90;;;;;;5051413;28;20706;-69
2023/12/23 03:26:18;;;;;;;0.00;0.00;;;8.30;99.90;;;;;;5051660;28;20775;-68
2023/12/23 03:28:44;;;;;;;0.00;0.00;;;8.30;99.90;;;;;;5051443;28;20197;-68
2023/12/23 03:31:09;;;;;;;0.00;0.00;;;8.30;99.90;;;;;;5051306;28;20184;-68
2023/12/23 03:33:35;;;;;;;0.00;0.00;;;8.30;99.90;;;;;;5051477;28;20636;-67
2023/12/23 03:36:00;;;;;;;0.00;0.00;;;8.30;99.90;;;;;;5051359;28;20193;-68
2023/12/23 03:38:26;;;;;;;0.00;0.00;;;8.30;99.90;;;;;;5050918;28;20702;-69
2023/12/23 03:40:52;;;;;;;0.00;0.00;;;8.30;99.90;;;;;;5049859;28;20551;-68
2023/12/23 03:43:17;;;;;;;0.00;0.00;;;8.30;99.90;;;;;;5051154;28;20209;-69
2023/12/23 03:45:43;;;;;;;0.00;0.00;;;8.30;99.90;;;;;;5051132;28;20197;-68
2023/12/23 03:48:09;;;;;;;0.00;0.00;;;8.30;99.90;;;;;;5051237;28;20303;-68
2023/12/23 03:50:34;;;;;;;0.00;0.00;;;8.30;99.90;;;;;;5051020;28;20223;-67
2023/12/23 03:53:00;;;;;;;0.00;0.00;;;8.20;99.90;;;;;;5050835;28;20178;-67
2023/12/23 03:55:31;;;;;;;0.00;0.00;;;8.20;99.90;;;;;;5050998;28;20181;-67
2023/12/23 03:57:57;;;;;;;0.00;0.00;;;8.20;99.90;;;;;;5050834;28;20267;-66
2023/12/23 04:00:22;;;;;;;0.00;0.00;;;8.20;99.90;;;;;;5051005;28;20181;-66
2023/12/23 04:02:48;;;;;;;0.00;0.00;;;8.10;99.90;;;;;;5050854;28;20591;-66
2023/12/23 04:05:15;;;;;;;0.00;0.00;;;8.10;99.90;;;;;;5050720;28;20181;-67
2023/12/23 04:07:41;;;;;;;0.00;0.00;;;8.00;99.90;;;;;;5050993;28;20637;-67
2023/12/23 04:10:06;;;;;;;0.00;0.00;;;8.00;99.90;;;;;;5050658;28;20189;-67
2023/12/23 04:12:32;;;;;;;0.00;0.00;;;8.00;99.90;;;;;;5050762;28;20185;-67
2023/12/23 04:14:57;;;;;;;0.00;0.00;;;7.90;99.90;;;;;;5050960;28;20242;-67
2023/12/23 04:17:23;;;;;;;0.00;0.00;;;7.90;99.90;;;;;;5050653;28;20235;-68
2023/12/23 04:19:50;;;;;;;0.00;0.00;;;7.90;99.90;;;;;;5049461;28;20177;-68
2023/12/23 04:22:16;;;;;;;0.00;0.00;;;7.90;99.90;;;;;;5050625;28;20216;-68
2023/12/23 04:24:41;;;;;;;0.00;0.00;;;8.00;99.90;;;;;;5050522;28;20541;-68
2023/12/23 04:27:07;;;;;;;0.00;0.00;;;8.00;99.90;;;;;;5050384;28;20212;-67
2023/12/23 04:29:32;;;;;;;0.00;0.00;;;8.00;99.90;;;;;;5050749;28;20166;-68
2023/12/23 04:31:58;;;;;;;0.00;0.00;;;8.00;99.90;;;;;;5050619;28;20177;-68
2023/12/23 04:34:23;;;;;;;0.00;0.00;;;8.00;99.90;;;;;;5053475;28;20184;-67
2023/12/23 04:36:49;;;;;;;0.00;0.00;;;8.00;99.90;;;;;;5054184;28;20188;-67
2023/12/23 04:39:15;;;;;;;0.00;0.00;;;8.00;99.90;;;;;;5054254;28;20231;-67
2023/12/23 04:41:46;;;;;;;0.00;0.00;;;8.00;99.90;;;;;;5054945;28;20173;-68
2023/12/23 04:44:13;;;;;;;0.00;0.00;;;8.00;99.90;;;;;;5054629;28;20763;-67
2023/12/23 04:46:39;;;;;;;0.00;0.00;;;8.00;99.90;;;;;;5054657;28;20189;-67
2023/12/23 04:49:05;;;;;;;0.00;0.00;;;8.00;99.90;;;;;;5054427;28;20192;-67
2023/12/23 04:51:30;;;;;;;0.00;0.00;;;8.00;99.90;;;;;;5054313;28;20188;-66
2023/12/23 04:53:56;;;;;;;0.00;0.00;;;8.00;99.90;;;;;;5054310;28;20207;-67
2023/12/23 04:56:22;;;;;;;0.00;0.00;;;8.00;99.90;;;;;;5054387;28;20656;-68
2023/12/23 04:58:48;;;;;;;0.00;0.00;;;8.00;99.90;;;;;;5054438;28;20255;-67
2023/12/23 05:01:13;;;;;;;0.00;0.00;;;8.00;99.90;;;;;;5054249;28;20736;-68
2023/12/23 05:03:39;;;;;;;0.00;0.00;;;8.00;99.90;;;;;;5054294;28;20228;-68
2023/12/23 05:06:06;;;;;;;0.00;0.00;;;8.00;99.90;;;;;;5053987;28;20256;-68
2023/12/23 05:08:32;;;;;;;0.00;0.00;;;8.10;99.90;;;;;;5053971;28;20227;-68
2023/12/23 05:10:58;;;;;;;0.00;0.00;;;8.00;99.90;;;;;;5052831;28;20178;-68
2023/12/23 05:13:23;;;;;;;0.00;0.00;;;8.00;99.90;;;;;;5052903;28;20208;-68
2023/12/23 05:15:49;;;;;;;0.00;0.00;;;8.10;99.90;;;;;;5053913;28;20213;-67
2023/12/23 05:18:15;;;;;;;0.00;0.00;;;8.10;99.90;;;;;;5053004;28;20200;-68
2023/12/23 05:20:40;;;;;;;0.00;0.00;;;8.00;99.90;;;;;;5052526;28;20629;-70
2023/12/23 05:23:06;;;;;;;0.00;0.00;;;8.00;99.90;;;;;;5053289;28;20221;-68
2023/12/23 05:25:31;;;;;;;0.00;0.00;;;8.00;99.90;;;;;;5052221;28;20173;-68
2023/12/23 05:27:57;;;;;;;0.00;0.00;;;8.00;99.90;;;;;;5052784;28;20201;-68
2023/12/23 05:30:22;;;;;;;0.00;0.00;;;8.00;99.90;;;;;;5053905;28;20188;-67
2023/12/23 05:32:48;;;;;;;0.00;0.00;;;8.00;99.90;;;;;;5053773;28;20564;-68
2023/12/23 05:35:14;;;;;;;0.00;0.00;;;8.10;99.90;;;;;;5052385;28;20236;-69
2023/12/23 05:37:39;;;;;;;0.00;0.00;;;8.10;99.90;;;;;;5054848;28;20173;-67
2023/12/23 05:40:06;;;;;;;0.00;0.00;;;8.00;99.90;;;;;;5053217;28;20221;-67
2023/12/23 05:42:31;;;;;;;0.05;0.05;;;8.00;99.90;;;;;;5053128;28;20551;-69
2023/12/23 05:44:57;;;;;;;0.57;0.38;;;8.00;99.90;;;;;;5053081;28;20181;-68
2023/12/23 05:47:23;;;;;;;0.00;0.00;;;8.00;99.90;;;;;;5053339;28;20192;-69
2023/12/23 05:49:48;;;;;;;0.10;0.10;;;8.00;99.90;;;;;;5053343;28;20177;-67
2023/12/23 05:52:14;;;;;;;0.00;0.00;;;8.00;99.90;;;;;;5053391;28;20204;-68
2023/12/23 05:54:39;;;;;;;0.00;0.00;;;8.00;99.90;;;;;;5052987;28;20181;-68
2023/12/23 05:57:05;;;;;;;0.00;0.00;;;8.00;99.90;;;;;;5052514;28;20246;-69
2023/12/23 05:59:32;;;;;;;0.00;0.00;;;8.00;99.90;;;;;;5052837;28;20178;-69
2023/12/23 06:01:57;;;;;;;0.00;0.00;;;8.00;99.90;;;;;;5051376;28;20197;-73
2023/12/23 06:04:23;;;;;;;0.00;0.00;;;8.00;99.90;;;;;;5050967;28;20315;-70
2023/12/23 06:06:48;;;;;;;0.00;0.00;;;8.00;99.90;;;;;;5053190;28;20580;-78
2023/12/23 06:09:14;;;;;;;0.00;0.00;;;8.00;99.90;;;;;;5052062;28;20523;-71
2023/12/23 06:11:39;;;;;;;0.00;0.00;;;8.00;99.90;;;;;;5053242;28;20181;-68
2023/12/23 06:14:05;;;;;;;0.00;0.00;;;8.00;99.90;;;;;;5053457;28;20181;-70
2023/12/23 06:16:30;;;;;;;0.00;0.00;;;8.00;99.90;;;;;;5052182;28;20186;-74
2023/12/23 06:18:56;;;;;;;0.00;0.00;;;8.00;99.90;;;;;;5052726;28;20193;-76
2023/12/23 06:21:21;;;;;;;0.00;0.00;;;8.00;99.90;;;;;;5053003;28;20177;-73
2023/12/23 06:23:47;;;;;;;0.00;0.00;;;8.00;99.90;;;;;;5052380;28;20217;-73
2023/12/23 06:26:12;;;;;;;0.15;0.15;;;8.00;99.90;;;;;;5053139;28;20174;-70
2023/12/23 06:28:38;;;;;;;0.00;0.00;;;8.00;99.90;;;;;;5053309;28;20177;-73
2023/12/23 06:31:03;;;;;;;0.00;0.00;;;8.00;99.90;;;;;;5052766;28;20193;-74
2023/12/23 06:33:29;;;;;;;0.00;0.00;;;8.00;99.90;;;;;;5052954;28;20170;-73
2023/12/23 06:35:54;;;;;;;0.00;0.00;;;7.90;99.90;;;;;;5052679;28;20181;-72
2023/12/23 06:38:20;;;;;;;0.30;0.30;;;8.00;99.90;;;;;;5052789;28;20290;-72
2023/12/23 06:40:46;;;;;;;0.00;0.00;;;7.90;99.90;;;;;;5051694;28;20269;-70
2023/12/23 06:43:11;;;;;;;0.00;0.00;;;7.90;99.90;;;;;;5052799;28;20538;-69
2023/12/23 06:45:37;;;;;;;0.00;0.00;;;7.90;99.90;;;;;;5052964;28;20208;-69
2023/12/23 06:48:02;;;;;;;0.00;0.00;;;7.90;99.90;;;;;;5052919;28;20189;-76
2023/12/23 06:50:28;;;;;;;0.00;0.00;;;7.90;99.90;;;;;;5053187;28;20178;-76
2023/12/23 06:52:53;;;;;;;0.00;0.00;;;7.80;99.90;;;;;;5051656;28;20216;-75
2023/12/23 06:55:29;;;;;;;0.00;0.00;;;7.80;99.90;;;;;;5052383;28;20226;-79
2023/12/23 06:57:57;;;;;;;0.00;0.00;;;7.80;99.90;;;;;;5052005;28;20185;-70
2023/12/23 07:00:22;;;;;;;0.10;0.10;;;7.80;99.90;;;;;;5053421;28;20220;-71
2023/12/23 07:02:49;;;;;;;0.00;0.00;;;7.90;99.90;;;;;;5053802;28;20282;-75
2023/12/23 07:05:14;;;;;;;0.00;0.00;;;7.80;99.90;;;;;;5052210;28;20185;-67
2023/12/23 07:07:40;;;;;;;0.00;0.00;;;7.90;99.90;;;;;;5065157;28;20194;-75
2023/12/23 07:10:06;;;;;;;0.00;0.00;;;7.90;99.90;;;;;;5068245;28;20181;-73
2023/12/23 07:12:32;;;;;;;0.00;0.00;;;7.90;99.90;;;;;;5064862;28;20263;-73
2023/12/23 07:14:57;;;;;;;0.00;0.00;;;7.90;99.90;;;;;;5067768;28;20193;-71
2023/12/23 07:17:23;;;;;;;0.00;0.00;;;7.90;99.90;;;;;;5064410;28;20185;-71
2023/12/23 07:19:49;;;;;;;0.00;0.00;;;7.90;99.90;;;;;;5054299;28;20223;-74
2023/12/23 07:22:15;;;;;;;0.00;0.00;;;7.90;99.90;;;;;;5053617;28;20204;-70
2023/12/23 07:24:40;;;;;;;0.00;0.00;;;7.80;99.90;;;;;;5063029;28;20546;-71
2023/12/23 07:27:06;;;;;;;0.00;0.00;;;7.80;99.90;;;;;;5058629;28;20177;-70
2023/12/23 07:29:31;;;;;;;0.00;0.00;;;7.80;99.90;;;;;;5056742;28;20177;-71
2023/12/23 07:31:57;;;;;;;0.22;0.22;;;7.80;99.90;;;;;;5059719;28;20193;-72
2023/12/23 07:34:22;;;;;;;0.00;0.00;;;7.80;99.90;;;;;;5059281;28;20184;-72
2023/12/23 07:36:48;;;;;;;0.00;0.00;;;7.80;99.90;;;;;;5051772;28;20185;-75
2023/12/23 07:39:14;;;;;;;0.00;0.00;;;7.70;99.90;;;;;;5051980;28;20908;-74
2023/12/23 07:41:39;;;;;;;0.00;0.00;;;7.70;99.90;;;;;;5050608;28;20644;-73
2023/12/23 07:44:06;;;;;;;0.00;0.00;;;7.70;99.90;;;;;;5051636;28;20209;-72
2023/12/23 07:46:31;;;;;;;0.00;0.00;;;7.70;99.90;;;;;;5051794;28;20253;-73
2023/12/23 07:48:57;;;;;;;0.00;0.00;;;7.70;99.90;;;;;;5051538;28;20177;-74
2023/12/23 07:51:22;;;;;;;0.00;0.00;;;7.70;99.90;;;;;;5051246;28;20256;-73
2023/12/23 07:53:48;;;;;;;0.00;0.00;;;7.60;99.90;;;;;;5051543;28;20532;-71
2023/12/23 07:56:13;;;;;;;0.00;0.00;;;7.60;99.90;;;;;;5050289;28;20185;-73
2023/12/23 07:58:39;;;;;;;0.00;0.00;;;7.60;99.90;;;;;;5051439;28;20177;-74
2023/12/23 08:01:04;;;;;;;0.00;0.00;;;7.70;99.90;;;;;;5051337;28;20181;-73
2023/12/23 08:03:30;;;;;;;0.00;0.00;;;7.70;99.90;;;;;;5051682;28;20209;-73
2023/12/23 08:05:55;;;;;;;0.00;0.00;;;7.70;99.90;;;;;;5051440;28;20165;-76
2023/12/23 08:08:21;;;;;;;0.00;0.00;;;7.70;99.90;;;;;;5051549;28;20227;-74
2023/12/23 08:10:46;;;;;;;0.00;0.00;;;7.70;99.90;;;;;;5051490;28;20835;-74
2023/12/23 08:13:12;;;;;;;0.00;0.00;;;7.70;99.90;;;;;;5051541;28;20188;-74
2023/12/23 08:15:37;;;;;;;0.00;0.00;;;7.70;99.90;;;;;;5051298;28;20181;-73
2023/12/23 08:18:03;;;;;;;0.00;0.00;;;7.70;99.90;;;;;;5051458;28;20284;-73
2023/12/23 08:20:29;;;;;;;0.00;0.00;;;7.80;99.90;;;;;;5051439;28;20193;-74
2023/12/23 08:22:54;;;;;;;0.00;0.00;;;7.80;99.90;;;;;;5051085;28;20288;-75
2023/12/23 08:25:20;;;;;;;0.00;0.00;;;7.80;99.90;;;;;;5051458;28;20208;-74
2023/12/23 08:27:45;;;;;;;0.00;0.00;;;7.80;99.90;;;;;;5051321;28;20533;-72
2023/12/23 08:30:11;;;;;;;0.00;0.00;;;7.80;99.90;;;;;;5051267;28;20177;-76
2023/12/23 08:32:37;;;;;;;0.00;0.00;;;7.90;99.90;;;;;;5051146;28;20629;-73
2023/12/23 08:35:03;;;;;;;0.00;0.00;;;7.90;99.90;;;;;;5051223;28;20265;-76
2023/12/23 08:37:28;;;;;;;0.00;0.00;;;7.90;99.90;;;;;;5051258;28;20181;-74
2023/12/23 08:39:54;;;;;;;0.00;0.00;;;7.90;99.90;;;;;;5051061;28;20229;-74
2023/12/23 08:42:20;;;;;;;0.00;0.00;;;7.90;99.90;;;;;;5051281;28;20213;-74
2023/12/23 08:44:47;;;;;;;0.00;0.00;;;7.90;99.90;;;;;;5051149;28;20169;-74
2023/12/23 08:47:13;;;;;;;0.00;0.00;;;7.90;99.90;;;;;;5051253;28;20181;-73
2023/12/23 08:49:41;;;;;;;0.00;0.00;;;7.90;99.90;;;;;;5051039;28;20170;-74
2023/12/23 08:52:07;;;;;;;0.00;0.00;;;7.90;99.90;;;;;;5050995;28;20184;-75
2023/12/23 08:54:33;;;;;;;0.00;0.00;;;7.90;99.90;;;;;;5051148;28;20173;-75
2023/12/23 08:56:58;;;;;;;0.00;0.00;;;7.90;99.90;;;;;;5050867;28;20178;-75
2023/12/23 08:59:24;;;;;;;0.00;0.00;;;8.00;99.90;;;;;;5051111;28;20189;-74
2023/12/23 09:01:49;;;;;;;0.00;0.00;;;8.00;99.90;;;;;;5051114;28;20177;-72
2023/12/23 09:04:16;;;;;;;0.00;0.00;;;8.00;99.90;;;;;;5050998;28;20177;-72
2023/12/23 09:06:42;;;;;;;0.00;0.00;;;8.00;99.90;;;;;;5051027;28;20637;-74
2023/12/23 09:09:07;;;;;;;0.00;0.00;;;8.00;99.90;;;;;;5050874;28;20196;-74
2023/12/23 09:11:33;;;;;;;0.00;0.00;;;8.10;99.90;;;;;;5051006;28;20199;-72
2023/12/23 09:13:58;;;;;;;0.00;0.00;;;8.10;99.90;;;;;;5050768;28;20278;-74
2023/12/23 09:16:24;;;;;;;0.00;0.00;;;8.10;99.90;;;;;;5050831;28;20268;-76
2023/12/23 09:18:49;;;;;;;0.00;0.00;;;8.10;99.90;;;;;;5050883;28;20180;-73
2023/12/23 09:21:15;;;;;;;0.00;0.00;;;8.10;99.90;;;;;;5054538;28;20177;-74
2023/12/23 09:23:41;;;;;;;0.00;0.00;;;8.10;99.90;;;;;;5054667;28;20212;-74
2023/12/23 09:26:06;;;;;;;0.00;0.00;;;8.10;99.90;;;;;;5054588;28;20174;-74
2023/12/23 09:28:32;;;;;;;0.00;0.00;;;8.10;99.90;;;;;;5054636;28;20224;-73
2023/12/23 09:30:57;;;;;;;0.00;0.00;;;8.10;99.90;;;;;;5054369;28;20177;-73
2023/12/23 09:33:23;;;;;;;0.00;0.00;;;8.10;99.90;;;;;;5054642;28;20184;-73
2023/12/23 09:35:48;;;;;;;0.00;0.00;;;8.10;99.90;;;;;;5054170;28;20529;-74
2023/12/23 09:38:14;;;;;;;0.00;0.00;;;8.10;99.90;;;;;;5052997;28;20217;-77
2023/12/23 09:40:39;;;;;;;0.00;0.00;;;8.10;99.90;;;;;;5054400;28;20216;-75
2023/12/23 09:43:05;;;;;;;0.00;0.00;;;8.20;99.90;;;;;;5052920;28;20798;-76
2023/12/23 09:45:32;;;;;;;0.00;0.00;;;8.20;99.90;;;;;;5054287;28;20170;-79
2023/12/23 09:47:58;;;;;;;0.00;0.00;;;8.20;99.90;;;;;;5052735;28;20185;-76
2023/12/23 09:50:24;;;;;;;0.00;0.00;;;8.20;99.90;;;;;;5054189;28;20224;-78
2023/12/23 09:52:53;;;;;;;0.00;0.00;;;8.20;99.90;;;;;;5054066;28;20177;-77
2023/12/23 09:55:19;;;;;;;0.00;0.00;;;8.20;99.90;;;;;;5053932;28;20182;-77
2023/12/23 09:57:45;;;;;;;0.00;0.00;;;8.20;99.90;;;;;;5052770;28;20181;-74
2023/12/23 10:00:11;;;;;;;0.00;0.00;;;8.10;99.90;;;;;;5054042;28;20235;-79
2023/12/23 10:02:37;;;;;;;0.00;0.00;;;8.20;99.90;;;;;;5053784;28;20217;-73
2023/12/23 10:05:03;;;;;;;0.00;0.00;;;8.20;99.90;;;;;;5053879;28;20192;-73
2023/12/23 10:07:28;;;;;;;0.00;0.00;;;8.20;99.90;;;;;;5052615;28;20213;-75
2023/12/23 10:09:54;;;;;;;0.00;0.00;;;8.20;99.90;;;;;;5053694;28;20189;-74
2023/12/23 10:12:21;;;;;;;0.00;0.00;;;8.10;99.90;;;;;;5053625;28;20184;-74
2023/12/23 10:14:48;;;;;;;0.00;0.00;;;8.10;99.90;;;;;;5053687;28;20256;-74
2023/12/23 10:17:14;;;;;;;0.00;0.00;;;8.10;99.90;;;;;;5053755;28;20181;-74
2023/12/23 10:19:39;;;;;;;0.00;0.00;;;8.20;99.90;;;;;;5053717;28;20177;-76
2023/12/23 10:22:06;;;;;;;0.00;0.00;;;8.10;99.90;;;;;;5053483;28;20241;-75
2023/12/23 10:24:32;;;;;;;0.00;0.00;;;8.10;99.90;;;;;;5053502;28;20220;-76
2023/12/23 10:27:00;;;;;;;0.00;0.00;;;8.10;99.90;;;;;;5053263;28;20198;-76
2023/12/23 10:29:29;;;;;;;0.00;0.00;;;8.10;99.90;;;;;;5053713;28;20647;-75
2023/12/23 10:31:56;;;;;;;0.00;0.00;;;8.10;99.90;;;;;;5051920;28;20178;-76
2023/12/23 10:34:25;;;;;;;0.00;0.00;;;8.20;99.90;;;;;;5053308;28;20185;-75
2023/12/23 10:36:53;;;;;;;0.00;0.00;;;8.20;99.90;;;;;;5051867;28;20641;-76
2023/12/23 10:39:27;;;;;;;0.00;0.00;;;8.20;99.90;;;;;;5053016;28;20237;-78
2023/12/23 10:42:02;;;;;;;0.00;0.00;;;8.20;99.90;;;;;;5053140;28;20256;-77
2023/12/23 10:44:30;;;;;;;0.00;0.00;;;8.20;99.90;;;;;;5053099;28;20673;-78
2023/12/23 10:46:56;;;;;;;0.03;0.03;;;8.20;99.90;;;;;;5052667;28;20260;-77
2023/12/23 10:49:23;;;;;;;0.00;0.00;;;8.20;99.90;;;;;;5053104;28;20209;-76
2023/12/23 10:51:49;;;;;;;0.00;0.00;;;8.20;99.90;;;;;;5052889;28;20184;-76
2023/12/23 10:54:15;;;;;;;0.17;0.17;;;8.20;99.90;;;;;;5052039;28;20182;-78
2023/12/23 10:56:41;;;;;;;0.13;0.13;;;8.20;99.90;;;;;;5051594;28;20169;-75
2023/12/23 10:59:07;;;;;;;0.20;0.20;;;8.20;99.90;;;;;;5052296;28;20645;-79
2023/12/23 11:01:35;;;;;;;0.00;0.00;;;8.30;99.90;;;;;;5052602;28;20268;-78
2023/12/23 11:04:02;;;;;;;0.00;0.00;;;8.20;99.90;;;;;;5048875;28;20216;-78
2023/12/23 11:06:30;;;;;;;0.00;0.00;;;8.20;99.90;;;;;;5051440;28;20256;-80
2023/12/23 11:08:58;;;;;;;0.00;0.00;;;8.20;99.90;;;;;;5051667;28;20173;-74
2023/12/23 11:11:24;;;;;;;0.00;0.00;;;8.20;99.90;;;;;;5052015;28;20170;-73
2023/12/23 11:13:51;;;;;;;0.00;0.00;;;8.10;99.90;;;;;;5051616;28;20185;-74
2023/12/23 11:16:17;;;;;;;0.00;0.00;;;8.20;99.90;;;;;;5031949;28;20269;-72
2023/12/23 11:18:43;;;;;;;0.00;0.00;;;8.10;99.90;;;;;;5041873;28;20185;-74
2023/12/23 11:21:18;;;;;;;0.00;0.00;;;8.10;99.90;;;;;;5051094;28;20284;-74
2023/12/23 11:23:45;;;;;;;0.00;0.00;;;8.10;99.90;;;;;;5041720;28;20753;-72
2023/12/23 11:26:39;;;;;;;0.00;0.00;;;8.10;99.90;;;;;;5052008;28;20184;-73
2023/12/23 11:29:11;;;;;;;0.00;0.00;;;8.10;99.90;;;;;;5035191;28;20645;-72
2023/12/23 11:31:37;;;;;;;0.00;0.00;;;8.10;99.90;;;;;;5051139;28;20636;-72
2023/12/23 11:34:15;;;;;;;0.00;0.00;;;8.20;99.90;;;;;;5049766;28;20190;-73
2023/12/23 11:36:43;;;;;;;0.00;0.00;;;8.20;99.90;;;;;;5050977;28;20628;-72
2023/12/23 11:39:11;;;;;;;0.00;0.00;;;8.20;99.90;;;;;;5051096;28;20696;-72
2023/12/23 11:41:39;;;;;;;0.00;0.00;;;8.20;99.90;;;;;;5051024;28;20242;-74
2023/12/23 11:44:05;;;;;;;0.00;0.00;;;8.20;99.90;;;;;;5050815;28;20223;-75
2023/12/23 11:46:31;;;;;;;0.00;0.00;;;8.20;99.90;;;;;;5046337;28;20181;-73
2023/12/23 11:48:57;;;;;;;0.00;0.00;;;8.20;99.90;;;;;;5050641;28;20188;-73
2023/12/23 11:51:23;;;;;;;0.00;0.00;;;8.10;99.90;;;;;;5049303;28;20535;-73
2023/12/23 11:53:49;;;;;;;0.00;0.00;;;8.10;99.90;;;;;;5050799;28;20590;-73
2023/12/23 11:56:15;;;;;;;0.00;0.00;;;8.00;99.90;;;;;;5051546;28;20174;-74
2023/12/23 11:58:41;;;;;;;0.00;0.00;;;8.00;99.90;;;;;;5051106;28;20181;-74
2023/12/23 12:01:07;;;;;;;0.00;0.00;;;8.00;99.90;;;;;;5051558;28;20266;-76
2023/12/23 12:03:32;;;;;;;0.00;0.00;;;8.00;99.90;;;;;;5050465;28;20633;-72
2023/12/23 12:05:58;;;;;;;0.00;0.00;;;8.00;99.90;;;;;;5051237;28;20203;-72
2023/12/23 12:08:25;;;;;;;0.00;0.00;;;8.00;99.90;;;;;;5051021;28;20198;-72
2023/12/23 12:10:53;;;;;;;0.10;0.10;;;8.00;99.90;;;;;;5050431;28;20612;-72
2023/12/23 12:13:19;;;;;;;0.00;0.00;;;8.00;99.90;;;;;;5051010;28;20189;-72
2023/12/23 12:15:44;;;;;;;0.00;0.00;;;8.00;99.90;;;;;;5050613;28;20525;-71
2023/12/23 12:18:14;;;;;;;0.00;0.00;;;8.00;99.90;;;;;;5050737;28;20533;-72
2023/12/23 12:20:39;;;;;;;0.00;0.00;;;8.00;99.90;;;;;;5050715;28;20181;-73
2023/12/23 12:23:05;;;;;;;0.00;0.00;;;8.00;99.90;;;;;;5050369;28;20262;-70
2023/12/23 12:25:30;;;;;;;0.00;0.00;;;8.00;99.90;;;;;;5050778;28;20586;-72
2023/12/23 12:27:57;;;;;;;0.00;0.00;;;8.00;99.90;;;;;;5050704;28;20177;-73
2023/12/23 12:30:23;;;;;;;0.00;0.00;;;8.10;99.90;;;;;;5050869;28;20543;-72
2023/12/23 12:32:49;;;;;;;0.00;0.00;;;8.10;99.90;;;;;;5048966;28;20188;-71
2023/12/23 12:35:15;;;;;;;0.00;0.00;;;8.10;99.90;;;;;;5050604;28;20186;-72
2023/12/23 12:37:41;;;;;;;0.00;0.00;;;8.10;99.90;;;;;;5050295;28;20586;-74
2023/12/23 12:40:13;;;;;;;0.00;0.00;;;8.10;99.90;;;;;;5050060;28;20229;-72
2023/12/23 12:42:45;;;;;;;0.00;0.00;;;8.20;99.90;;;;;;5050564;28;20661;-72
2023/12/23 12:45:11;;;;;;;0.00;0.00;;;8.30;99.90;;;;;;5049453;28;20711;-73
2023/12/23 12:47:40;;;;;;;0.00;0.00;;;8.30;99.90;;;;;;5050673;28;20269;-74
2023/12/23 12:50:06;;;;;;;0.00;0.00;;;8.40;99.90;;;;;;5050805;28;20204;-72
2023/12/23 12:52:33;;;;;;;0.00;0.00;;;8.40;99.90;;;;;;5050613;28;20181;-73